KSANKIPL

Guest
Details From KSAN - San Diego Intl
To KIPL - IMPERIAL CO
Flight Number -
Tags generated
Created
Modified
Stats Distance 82 nm / 151 km
Max Altitude 9,200 ft / 2,804 m
Waypoints 3
Social Downloads 1
Likes 0
Share VATSIM

Download

Looking for another format? Having issues loading an existing format? Contact us
Advertisement - Login to hide

Notes

Basic altitude profile: - Ascent Rate: 2500ft/min - Ascent Speed: 250kts - Cruise Altitude: 35000ft - Cruise Speed: 420kts - Descent Rate: 1500ft/min - Descent Speed: 250kts Options: - Use NATs: yes - Use PACOTS: yes - Use low airways: yes - Use high airways: yes

Route

KSAN CANNO KIPL

ID Type Via Altitude Latitude Longitude Leg Dist Tot Dist Heading (true) Name
O KSAN APT - 0 ft / 0 m 32.73356˚ -117.18966˚ - 0 nm - San Diego Intl
CANNO FIX - 9,200 ft / 2,804 m 32.77322˚ -116.62396˚ 28 nm 28 nm 85° / 85° -
O KIPL APT - 0 ft / 0 m 32.83407˚ -115.57906˚ 52 nm 81 nm 86° / 86° IMPERIAL CO

Altitude Profile

Advertisement - Login to hide

KSAN

Details ICAO KSAN (SAN)
Name San Diego Intl
Region United States
Timezone America/Los_Angeles (UTC-7.0)
Stats Elevation 17 ft / 5 m (AMSL)
Location 32.733556° -117.189658°
Runways 1
Magnetic Variation 11.487° E

METAR

KSAN 262151Z 24011KT 10SM SCT024 BKN032 18/12 A3004 RMK AO2 SLP172 T01830117

Decode

TAF

TAF AMD KSAN 262015Z 2620/2724 25011KT P6SM SCT025 BKN040 FM270300 25005KT P6SM BKN020 FM271800 27009KT P6SM SCT025 BKN040

Decode

Departure Runways

ID Width Length Bearing (true) Bearing (mag) Surface Threshold Offset Overrun Length
09 200 ft / 61 m 9,387 ft / 2,861 m 106.07° 94.58° Asphalt 699 ft / 213 m 269 ft / 82 m
27 200 ft / 61 m 9,387 ft / 2,861 m 286.08° 274.59° Asphalt 1,811 ft / 552 m 0 ft / 0 m

KIPL

Details ICAO KIPL (IPL)
Name IMPERIAL CO
Region United States
Timezone America/Los_Angeles (UTC-7.0)
Stats Elevation -54 ft / -16 m (AMSL)
Location 32.834066° -115.579060°
Runways 2
Magnetic Variation 11.144° E

METAR

KIPL 262153Z AUTO 29017G22KT 10SM CLR 29/06 A2980 RMK AO2 SLP089 T02940056

Decode

TAF

TAF KIPL 261720Z 2618/2718 27015G25KT P6SM FEW250 FM270300 27012G20KT P6SM SKC FM271000 28007KT P6SM SKC

Decode

Destination Runways

ID Width Length Bearing (true) Bearing (mag) Surface Threshold Offset Overrun Length
08 75 ft / 23 m 4,492 ft / 1,369 m 89.97° 78.83° Asphalt 0 ft / 0 m 0 ft / 0 m
14 100 ft / 30 m 5,314 ft / 1,620 m 152.81° 141.67° Asphalt 0 ft / 0 m 0 ft / 0 m
26 75 ft / 23 m 4,492 ft / 1,369 m 269.98° 258.84° Asphalt 0 ft / 0 m 0 ft / 0 m
32 100 ft / 30 m 5,314 ft / 1,620 m 332.81° 321.67° Asphalt 0 ft / 0 m 0 ft / 0 m

Popular Alternatives